sensor_id;sensor_type;location;lat;lon;timestamp;P1;P2;P0
49454;PMS5003;69710;64.656;21.218;2023-08-08T00:01:21;45;44;
49454;PMS5003;69710;64.656;21.218;2023-08-08T00:03:49;42;42;
49454;PMS5003;69710;64.656;21.218;2023-08-08T00:06:17;42;41;
49454;PMS5003;69710;64.656;21.218;2023-08-08T00:08:44;49;47;
49454;PMS5003;69710;64.656;21.218;2023-08-08T00:11:12;48;46;
49454;PMS5003;69710;64.656;21.218;2023-08-08T00:13:40;44;43;
49454;PMS5003;69710;64.656;21.218;2023-08-08T00:16:08;46;44;
49454;PMS5003;69710;64.656;21.218;2023-08-08T00:18:35;43;43;
49454;PMS5003;69710;64.656;21.218;2023-08-08T00:21:03;41;40;
49454;PMS5003;69710;64.656;21.218;2023-08-08T00:23:31;44;44;
49454;PMS5003;69710;64.656;21.218;2023-08-08T00:25:59;45;44;
49454;PMS5003;69710;64.656;21.218;2023-08-08T00:28:27;46;46;
49454;PMS5003;69710;64.656;21.218;2023-08-08T00:30:54;44;42;
49454;PMS5003;69710;64.656;21.218;2023-08-08T00:33:22;42;42;
49454;PMS5003;69710;64.656;21.218;2023-08-08T00:35:50;45;42;
49454;PMS5003;69710;64.656;21.218;2023-08-08T00:38:18;43;43;
49454;PMS5003;69710;64.656;21.218;2023-08-08T00:40:45;43;41;
49454;PMS5003;69710;64.656;21.218;2023-08-08T00:43:13;38;37;
49454;PMS5003;69710;64.656;21.218;2023-08-08T00:45:42;44;43;
49454;PMS5003;69710;64.656;21.218;2023-08-08T00:48:11;46;45;
49454;PMS5003;69710;64.656;21.218;2023-08-08T00:50:42;45;42;
49454;PMS5003;69710;64.656;21.218;2023-08-08T00:53:10;47;47;
49454;PMS5003;69710;64.656;21.218;2023-08-08T00:55:42;48;46;
49454;PMS5003;69710;64.656;21.218;2023-08-08T00:58:10;43;42;
49454;PMS5003;69710;64.656;21.218;2023-08-08T01:00:39;49;48;
49454;PMS5003;69710;64.656;21.218;2023-08-08T01:03:07;42;41;
49454;PMS5003;69710;64.656;21.218;2023-08-08T01:05:37;45;42;
49454;PMS5003;69710;64.656;21.218;2023-08-08T01:08:09;49;46;
49454;PMS5003;69710;64.656;21.218;2023-08-08T01:10:43;44;44;
49454;PMS5003;69710;64.656;21.218;2023-08-08T01:13:12;51;47;
49454;PMS5003;69710;64.656;21.218;2023-08-08T01:15:44;45;44;
49454;PMS5003;69710;64.656;21.218;2023-08-08T01:18:13;47;47;
49454;PMS5003;69710;64.656;21.218;2023-08-08T01:20:42;44;42;
49454;PMS5003;69710;64.656;21.218;2023-08-08T01:23:12;43;42;
49454;PMS5003;69710;64.656;21.218;2023-08-08T01:25:46;47;46;
49454;PMS5003;69710;64.656;21.218;2023-08-08T01:28:15;46;46;
49454;PMS5003;69710;64.656;21.218;2023-08-08T01:30:48;50;48;
49454;PMS5003;69710;64.656;21.218;2023-08-08T01:33:16;49;47;
49454;PMS5003;69710;64.656;21.218;2023-08-08T01:35:44;50;46;
49454;PMS5003;69710;64.656;21.218;2023-08-08T01:38:17;44;44;
49454;PMS5003;69710;64.656;21.218;2023-08-08T01:40:53;53;51;
49454;PMS5003;69710;64.656;21.218;2023-08-08T01:43:26;49;47;
49454;PMS5003;69710;64.656;21.218;2023-08-08T01:45:55;50;49;
49454;PMS5003;69710;64.656;21.218;2023-08-08T01:48:23;57;56;
49454;PMS5003;69710;64.656;21.218;2023-08-08T01:50:50;55;53;
49454;PMS5003;69710;64.656;21.218;2023-08-08T01:53:18;54;53;
49454;PMS5003;69710;64.656;21.218;2023-08-08T01:55:46;56;53;
49454;PMS5003;69710;64.656;21.218;2023-08-08T01:58:14;55;53;
49454;PMS5003;69710;64.656;21.218;2023-08-08T02:00:42;48;48;
49454;PMS5003;69710;64.656;21.218;2023-08-08T02:03:10;51;50;
49454;PMS5003;69710;64.656;21.218;2023-08-08T02:05:37;56;53;
49454;PMS5003;69710;64.656;21.218;2023-08-08T02:08:05;50;47;
49454;PMS5003;69710;64.656;21.218;2023-08-08T02:10:33;50;49;
49454;PMS5003;69710;64.656;21.218;2023-08-08T02:13:01;51;50;
49454;PMS5003;69710;64.656;21.218;2023-08-08T02:15:28;57;55;
49454;PMS5003;69710;64.656;21.218;2023-08-08T02:17:56;48;48;
49454;PMS5003;69710;64.656;21.218;2023-08-08T02:20:26;53;52;
49454;PMS5003;69710;64.656;21.218;2023-08-08T02:22:53;50;48;
49454;PMS5003;69710;64.656;21.218;2023-08-08T02:25:21;49;48;
49454;PMS5003;69710;64.656;21.218;2023-08-08T02:27:49;49;46;
49454;PMS5003;69710;64.656;21.218;2023-08-08T02:30:16;51;51;
49454;PMS5003;69710;64.656;21.218;2023-08-08T02:32:44;56;54;
49454;PMS5003;69710;64.656;21.218;2023-08-08T02:35:12;59;56;
49454;PMS5003;69710;64.656;21.218;2023-08-08T02:37:40;50;49;
49454;PMS5003;69710;64.656;21.218;2023-08-08T02:40:08;52;50;
49454;PMS5003;69710;64.656;21.218;2023-08-08T02:42:36;49;47;
49454;PMS5003;69710;64.656;21.218;2023-08-08T02:45:04;49;48;
49454;PMS5003;69710;64.656;21.218;2023-08-08T02:47:32;55;54;
49454;PMS5003;69710;64.656;21.218;2023-08-08T02:50:00;51;50;
49454;PMS5003;69710;64.656;21.218;2023-08-08T02:52:29;49;47;
49454;PMS5003;69710;64.656;21.218;2023-08-08T02:54:57;50;50;
49454;PMS5003;69710;64.656;21.218;2023-08-08T02:57:25;55;55;
49454;PMS5003;69710;64.656;21.218;2023-08-08T02:59:52;51;49;
49454;PMS5003;69710;64.656;21.218;2023-08-08T03:02:20;58;56;
49454;PMS5003;69710;64.656;21.218;2023-08-08T03:04:48;54;54;
49454;PMS5003;69710;64.656;21.218;2023-08-08T03:07:17;51;51;
49454;PMS5003;69710;64.656;21.218;2023-08-08T03:09:45;47;46;
49454;PMS5003;69710;64.656;21.218;2023-08-08T03:12:12;50;50;
49454;PMS5003;69710;64.656;21.218;2023-08-08T03:14:40;50;48;
49454;PMS5003;69710;64.656;21.218;2023-08-08T03:17:08;51;50;
49454;PMS5003;69710;64.656;21.218;2023-08-08T03:19:36;48;47;
49454;PMS5003;69710;64.656;21.218;2023-08-08T03:22:04;52;51;
49454;PMS5003;69710;64.656;21.218;2023-08-08T03:24:32;51;50;
49454;PMS5003;69710;64.656;21.218;2023-08-08T03:27:00;52;51;
49454;PMS5003;69710;64.656;21.218;2023-08-08T03:29:27;51;50;
49454;PMS5003;69710;64.656;21.218;2023-08-08T03:31:55;46;46;
49454;PMS5003;69710;64.656;21.218;2023-08-08T03:34:23;48;47;
49454;PMS5003;69710;64.656;21.218;2023-08-08T03:36:51;48;47;
49454;PMS5003;69710;64.656;21.218;2023-08-08T03:39:19;46;45;
49454;PMS5003;69710;64.656;21.218;2023-08-08T03:41:46;48;47;
49454;PMS5003;69710;64.656;21.218;2023-08-08T03:44:15;49;49;
49454;PMS5003;69710;64.656;21.218;2023-08-08T03:46:43;49;46;
49454;PMS5003;69710;64.656;21.218;2023-08-08T03:49:10;52;51;
49454;PMS5003;69710;64.656;21.218;2023-08-08T03:51:38;51;50;
49454;PMS5003;69710;64.656;21.218;2023-08-08T03:54:07;46;45;
49454;PMS5003;69710;64.656;21.218;2023-08-08T03:56:36;46;45;
49454;PMS5003;69710;64.656;21.218;2023-08-08T03:59:03;48;48;
49454;PMS5003;69710;64.656;21.218;2023-08-08T04:01:31;47;45;
49454;PMS5003;69710;64.656;21.218;2023-08-08T04:03:59;51;48;
49454;PMS5003;69710;64.656;21.218;2023-08-08T04:06:27;48;46;
49454;PMS5003;69710;64.656;21.218;2023-08-08T04:08:55;45;44;
49454;PMS5003;69710;64.656;21.218;2023-08-08T04:11:23;49;48;
49454;PMS5003;69710;64.656;21.218;2023-08-08T04:13:50;46;46;
49454;PMS5003;69710;64.656;21.218;2023-08-08T04:16:18;51;48;
49454;PMS5003;69710;64.656;21.218;2023-08-08T04:18:46;53;52;
49454;PMS5003;69710;64.656;21.218;2023-08-08T04:21:14;49;49;
49454;PMS5003;69710;64.656;21.218;2023-08-08T04:23:41;51;50;
49454;PMS5003;69710;64.656;21.218;2023-08-08T04:26:09;52;50;
49454;PMS5003;69710;64.656;21.218;2023-08-08T04:28:37;50;49;
49454;PMS5003;69710;64.656;21.218;2023-08-08T04:31:05;48;47;
49454;PMS5003;69710;64.656;21.218;2023-08-08T04:33:32;55;55;
49454;PMS5003;69710;64.656;21.218;2023-08-08T04:36:00;46;44;
49454;PMS5003;69710;64.656;21.218;2023-08-08T04:38:28;49;48;
49454;PMS5003;69710;64.656;21.218;2023-08-08T04:40:56;51;50;
49454;PMS5003;69710;64.656;21.218;2023-08-08T04:43:23;48;47;
49454;PMS5003;69710;64.656;21.218;2023-08-08T04:45:52;49;49;
49454;PMS5003;69710;64.656;21.218;2023-08-08T04:48:19;51;50;
49454;PMS5003;69710;64.656;21.218;2023-08-08T04:50:47;49;49;
49454;PMS5003;69710;64.656;21.218;2023-08-08T04:53:15;46;45;
49454;PMS5003;69710;64.656;21.218;2023-08-08T04:55:43;54;50;
49454;PMS5003;69710;64.656;21.218;2023-08-08T04:58:10;42;42;
49454;PMS5003;69710;64.656;21.218;2023-08-08T05:00:38;45;45;
49454;PMS5003;69710;64.656;21.218;2023-08-08T05:03:05;50;48;
49454;PMS5003;69710;64.656;21.218;2023-08-08T05:05:33;52;50;
49454;PMS5003;69710;64.656;21.218;2023-08-08T05:08:01;52;51;
49454;PMS5003;69710;64.656;21.218;2023-08-08T05:10:29;47;46;
49454;PMS5003;69710;64.656;21.218;2023-08-08T05:12:57;46;45;
49454;PMS5003;69710;64.656;21.218;2023-08-08T05:15:24;45;44;
49454;PMS5003;69710;64.656;21.218;2023-08-08T05:17:53;49;48;
49454;PMS5003;69710;64.656;21.218;2023-08-08T05:20:21;45;43;
49454;PMS5003;69710;64.656;21.218;2023-08-08T05:22:49;47;45;
49454;PMS5003;69710;64.656;21.218;2023-08-08T05:25:17;40;40;
49454;PMS5003;69710;64.656;21.218;2023-08-08T05:27:45;45;45;
49454;PMS5003;69710;64.656;21.218;2023-08-08T05:30:14;49;46;
49454;PMS5003;69710;64.656;21.218;2023-08-08T05:32:41;47;45;
49454;PMS5003;69710;64.656;21.218;2023-08-08T05:35:09;46;45;
49454;PMS5003;69710;64.656;21.218;2023-08-08T05:37:37;48;46;
49454;PMS5003;69710;64.656;21.218;2023-08-08T05:40:05;42;42;
49454;PMS5003;69710;64.656;21.218;2023-08-08T05:42:34;42;39;
49454;PMS5003;69710;64.656;21.218;2023-08-08T05:45:03;42;42;
49454;PMS5003;69710;64.656;21.218;2023-08-08T05:47:32;48;47;
49454;PMS5003;69710;64.656;21.218;2023-08-08T05:50:00;46;45;
49454;PMS5003;69710;64.656;21.218;2023-08-08T05:52:27;44;44;
49454;PMS5003;69710;64.656;21.218;2023-08-08T05:54:56;41;40;
49454;PMS5003;69710;64.656;21.218;2023-08-08T05:57:24;47;47;
49454;PMS5003;69710;64.656;21.218;2023-08-08T05:59:52;49;45;
49454;PMS5003;69710;64.656;21.218;2023-08-08T06:02:19;50;49;
49454;PMS5003;69710;64.656;21.218;2023-08-08T06:04:47;45;43;
49454;PMS5003;69710;64.656;21.218;2023-08-08T06:07:14;51;48;
49454;PMS5003;69710;64.656;21.218;2023-08-08T06:09:42;39;39;
49454;PMS5003;69710;64.656;21.218;2023-08-08T06:12:09;46;45;
49454;PMS5003;69710;64.656;21.218;2023-08-08T06:14:37;41;41;
49454;PMS5003;69710;64.656;21.218;2023-08-08T06:17:04;41;40;
49454;PMS5003;69710;64.656;21.218;2023-08-08T06:19:33;51;49;
49454;PMS5003;69710;64.656;21.218;2023-08-08T06:22:00;48;47;
49454;PMS5003;69710;64.656;21.218;2023-08-08T06:24:27;49;49;
49454;PMS5003;69710;64.656;21.218;2023-08-08T06:26:56;49;48;
49454;PMS5003;69710;64.656;21.218;2023-08-08T06:29:23;47;45;
49454;PMS5003;69710;64.656;21.218;2023-08-08T06:31:51;40;40;
49454;PMS5003;69710;64.656;21.218;2023-08-08T06:34:18;41;40;
49454;PMS5003;69710;64.656;21.218;2023-08-08T06:36:46;44;43;
49454;PMS5003;69710;64.656;21.218;2023-08-08T06:39:14;47;46;
49454;PMS5003;69710;64.656;21.218;2023-08-08T06:41:41;47;45;
49454;PMS5003;69710;64.656;21.218;2023-08-08T06:44:09;40;39;
49454;PMS5003;69710;64.656;21.218;2023-08-08T06:46:36;49;48;
49454;PMS5003;69710;64.656;21.218;2023-08-08T06:49:04;50;48;
49454;PMS5003;69710;64.656;21.218;2023-08-08T06:51:31;51;50;
49454;PMS5003;69710;64.656;21.218;2023-08-08T06:53:58;42;39;
49454;PMS5003;69710;64.656;21.218;2023-08-08T06:56:26;49;46;
49454;PMS5003;69710;64.656;21.218;2023-08-08T06:58:54;49;47;
49454;PMS5003;69710;64.656;21.218;2023-08-08T07:01:21;49;49;
49454;PMS5003;69710;64.656;21.218;2023-08-08T07:03:49;44;42;
49454;PMS5003;69710;64.656;21.218;2023-08-08T07:06:17;48;48;
49454;PMS5003;69710;64.656;21.218;2023-08-08T07:08:45;40;39;
49454;PMS5003;69710;64.656;21.218;2023-08-08T07:11:13;41;41;
49454;PMS5003;69710;64.656;21.218;2023-08-08T07:13:41;47;45;
49454;PMS5003;69710;64.656;21.218;2023-08-08T07:16:09;43;41;
49454;PMS5003;69710;64.656;21.218;2023-08-08T07:18:36;45;43;
49454;PMS5003;69710;64.656;21.218;2023-08-08T07:21:04;52;41;
49454;PMS5003;69710;64.656;21.218;2023-08-08T07:23:32;37;35;
49454;PMS5003;69710;64.656;21.218;2023-08-08T07:26:00;45;44;
49454;PMS5003;69710;64.656;21.218;2023-08-08T07:28:27;42;41;
49454;PMS5003;69710;64.656;21.218;2023-08-08T07:30:55;44;43;
49454;PMS5003;69710;64.656;21.218;2023-08-08T07:33:23;37;36;
49454;PMS5003;69710;64.656;21.218;2023-08-08T07:35:51;39;38;
49454;PMS5003;69710;64.656;21.218;2023-08-08T07:38:19;42;41;
49454;PMS5003;69710;64.656;21.218;2023-08-08T07:40:47;47;45;
49454;PMS5003;69710;64.656;21.218;2023-08-08T07:43:15;43;40;
49454;PMS5003;69710;64.656;21.218;2023-08-08T07:45:42;41;39;
49454;PMS5003;69710;64.656;21.218;2023-08-08T07:48:10;44;44;
49454;PMS5003;69710;64.656;21.218;2023-08-08T07:50:38;52;51;
49454;PMS5003;69710;64.656;21.218;2023-08-08T07:53:06;48;47;
49454;PMS5003;69710;64.656;21.218;2023-08-08T07:55:33;33;28;
49454;PMS5003;69710;64.656;21.218;2023-08-08T07:58:01;49;47;
49454;PMS5003;69710;64.656;21.218;2023-08-08T08:00:28;49;46;
49454;PMS5003;69710;64.656;21.218;2023-08-08T08:02:56;40;37;
49454;PMS5003;69710;64.656;21.218;2023-08-08T08:05:24;45;42;
49454;PMS5003;69710;64.656;21.218;2023-08-08T08:07:51;51;48;
49454;PMS5003;69710;64.656;21.218;2023-08-08T08:10:19;42;40;
49454;PMS5003;69710;64.656;21.218;2023-08-08T08:12:47;45;42;
49454;PMS5003;69710;64.656;21.218;2023-08-08T08:15:15;54;54;
49454;PMS5003;69710;64.656;21.218;2023-08-08T08:17:43;49;48;
49454;PMS5003;69710;64.656;21.218;2023-08-08T08:20:11;52;51;
49454;PMS5003;69710;64.656;21.218;2023-08-08T08:22:39;40;40;
49454;PMS5003;69710;64.656;21.218;2023-08-08T08:25:07;45;43;
49454;PMS5003;69710;64.656;21.218;2023-08-08T08:27:35;71;68;
49454;PMS5003;69710;64.656;21.218;2023-08-08T08:30:03;54;53;
49454;PMS5003;69710;64.656;21.218;2023-08-08T08:32:32;48;48;
49454;PMS5003;69710;64.656;21.218;2023-08-08T08:35:00;59;58;
49454;PMS5003;69710;64.656;21.218;2023-08-08T08:37:27;61;60;
49454;PMS5003;69710;64.656;21.218;2023-08-08T08:39:55;53;49;
49454;PMS5003;69710;64.656;21.218;2023-08-08T08:42:23;56;56;
49454;PMS5003;69710;64.656;21.218;2023-08-08T08:44:53;67;61;
49454;PMS5003;69710;64.656;21.218;2023-08-08T08:47:24;59;56;
49454;PMS5003;69710;64.656;21.218;2023-08-08T08:49:52;57;56;
49454;PMS5003;69710;64.656;21.218;2023-08-08T08:52:20;59;57;
49454;PMS5003;69710;64.656;21.218;2023-08-08T08:54:48;64;63;
49454;PMS5003;69710;64.656;21.218;2023-08-08T08:57:17;53;50;
49454;PMS5003;69710;64.656;21.218;2023-08-08T08:59:47;45;43;
49454;PMS5003;69710;64.656;21.218;2023-08-08T09:02:15;45;44;
49454;PMS5003;69710;64.656;21.218;2023-08-08T09:04:43;49;46;
49454;PMS5003;69710;64.656;21.218;2023-08-08T09:07:12;53;50;
49454;PMS5003;69710;64.656;21.218;2023-08-08T09:09:41;45;41;
49454;PMS5003;69710;64.656;21.218;2023-08-08T09:12:10;54;52;
49454;PMS5003;69710;64.656;21.218;2023-08-08T09:14:39;46;45;
49454;PMS5003;69710;64.656;21.218;2023-08-08T09:17:11;45;40;
49454;PMS5003;69710;64.656;21.218;2023-08-08T09:19:42;59;57;
49454;PMS5003;69710;64.656;21.218;2023-08-08T09:22:10;52;50;
49454;PMS5003;69710;64.656;21.218;2023-08-08T09:24:40;41;40;
49454;PMS5003;69710;64.656;21.218;2023-08-08T09:27:08;50;48;
49454;PMS5003;69710;64.656;21.218;2023-08-08T09:29:37;49;46;
49454;PMS5003;69710;64.656;21.218;2023-08-08T09:32:05;45;43;
49454;PMS5003;69710;64.656;21.218;2023-08-08T09:34:34;51;51;
49454;PMS5003;69710;64.656;21.218;2023-08-08T09:37:02;54;51;
49454;PMS5003;69710;64.656;21.218;2023-08-08T09:39:30;39;39;
49454;PMS5003;69710;64.656;21.218;2023-08-08T09:41:58;46;45;
49454;PMS5003;69710;64.656;21.218;2023-08-08T09:44:26;48;47;
49454;PMS5003;69710;64.656;21.218;2023-08-08T09:46:53;52;50;
49454;PMS5003;69710;64.656;21.218;2023-08-08T09:49:22;41;40;
49454;PMS5003;69710;64.656;21.218;2023-08-08T09:51:50;46;46;
49454;PMS5003;69710;64.656;21.218;2023-08-08T09:54:19;35;35;
49454;PMS5003;69710;64.656;21.218;2023-08-08T09:56:48;46;45;
49454;PMS5003;69710;64.656;21.218;2023-08-08T09:59:16;40;40;
49454;PMS5003;69710;64.656;21.218;2023-08-08T10:01:45;51;50;
49454;PMS5003;69710;64.656;21.218;2023-08-08T10:04:15;49;48;
49454;PMS5003;69710;64.656;21.218;2023-08-08T10:06:43;39;39;
49454;PMS5003;69710;64.656;21.218;2023-08-08T10:09:11;45;44;
49454;PMS5003;69710;64.656;21.218;2023-08-08T10:11:39;39;38;
49454;PMS5003;69710;64.656;21.218;2023-08-08T10:14:09;49;48;
49454;PMS5003;69710;64.656;21.218;2023-08-08T10:16:37;46;45;
49454;PMS5003;69710;64.656;21.218;2023-08-08T10:19:05;52;51;
49454;PMS5003;69710;64.656;21.218;2023-08-08T10:21:33;41;37;
49454;PMS5003;69710;64.656;21.218;2023-08-08T10:24:03;45;41;
49454;PMS5003;69710;64.656;21.218;2023-08-08T10:26:32;53;50;
49454;PMS5003;69710;64.656;21.218;2023-08-08T10:29:00;36;34;
49454;PMS5003;69710;64.656;21.218;2023-08-08T10:31:33;51;49;
49454;PMS5003;69710;64.656;21.218;2023-08-08T10:34:01;43;41;
49454;PMS5003;69710;64.656;21.218;2023-08-08T10:37:03;41;41;
49454;PMS5003;69710;64.656;21.218;2023-08-08T10:39:32;45;44;
49454;PMS5003;69710;64.656;21.218;2023-08-08T10:42:00;39;38;
49454;PMS5003;69710;64.656;21.218;2023-08-08T10:44:30;37;37;
49454;PMS5003;69710;64.656;21.218;2023-08-08T10:46:59;33;33;
49454;PMS5003;69710;64.656;21.218;2023-08-08T10:49:28;37;35;
49454;PMS5003;69710;64.656;21.218;2023-08-08T10:52:01;113;102;
49454;PMS5003;69710;64.656;21.218;2023-08-08T10:54:30;51;44;
49454;PMS5003;69710;64.656;21.218;2023-08-08T10:56:58;44;42;
49454;PMS5003;69710;64.656;21.218;2023-08-08T10:59:26;43;40;
49454;PMS5003;69710;64.656;21.218;2023-08-08T11:02:03;34;33;
49454;PMS5003;69710;64.656;21.218;2023-08-08T11:04:30;49;49;
49454;PMS5003;69710;64.656;21.218;2023-08-08T11:06:58;39;36;
49454;PMS5003;69710;64.656;21.218;2023-08-08T11:09:27;33;32;
49454;PMS5003;69710;64.656;21.218;2023-08-08T11:11:54;37;34;
49454;PMS5003;69710;64.656;21.218;2023-08-08T11:14:22;39;38;
49454;PMS5003;69710;64.656;21.218;2023-08-08T11:16:50;44;41;
49454;PMS5003;69710;64.656;21.218;2023-08-08T11:19:18;37;37;
49454;PMS5003;69710;64.656;21.218;2023-08-08T11:21:46;38;37;
49454;PMS5003;69710;64.656;21.218;2023-08-08T11:24:15;38;37;
49454;PMS5003;69710;64.656;21.218;2023-08-08T11:26:44;47;46;
49454;PMS5003;69710;64.656;21.218;2023-08-08T11:29:11;38;37;
49454;PMS5003;69710;64.656;21.218;2023-08-08T11:31:39;34;33;
49454;PMS5003;69710;64.656;21.218;2023-08-08T11:34:07;38;36;
49454;PMS5003;69710;64.656;21.218;2023-08-08T11:36:35;31;31;
49454;PMS5003;69710;64.656;21.218;2023-08-08T11:39:04;34;33;
49454;PMS5003;69710;64.656;21.218;2023-08-08T11:41:34;35;34;
49454;PMS5003;69710;64.656;21.218;2023-08-08T11:44:03;36;36;
49454;PMS5003;69710;64.656;21.218;2023-08-08T11:46:32;34;34;
49454;PMS5003;69710;64.656;21.218;2023-08-08T11:49:02;41;40;
49454;PMS5003;69710;64.656;21.218;2023-08-08T11:51:32;40;39;
49454;PMS5003;69710;64.656;21.218;2023-08-08T11:54:01;37;36;
49454;PMS5003;69710;64.656;21.218;2023-08-08T11:56:32;38;38;
49454;PMS5003;69710;64.656;21.218;2023-08-08T11:59:00;43;42;
49454;PMS5003;69710;64.656;21.218;2023-08-08T12:01:30;33;32;
49454;PMS5003;69710;64.656;21.218;2023-08-08T12:04:04;35;35;
49454;PMS5003;69710;64.656;21.218;2023-08-08T12:06:33;32;30;
49454;PMS5003;69710;64.656;21.218;2023-08-08T12:09:05;36;35;
49454;PMS5003;69710;64.656;21.218;2023-08-08T12:11:34;37;37;
49454;PMS5003;69710;64.656;21.218;2023-08-08T12:14:02;35;33;
49454;PMS5003;69710;64.656;21.218;2023-08-08T12:16:30;35;35;
49454;PMS5003;69710;64.656;21.218;2023-08-08T12:18:59;36;35;
49454;PMS5003;69710;64.656;21.218;2023-08-08T12:21:29;36;34;
49454;PMS5003;69710;64.656;21.218;2023-08-08T12:23:57;33;33;
49454;PMS5003;69710;64.656;21.218;2023-08-08T12:26:24;31;29;
49454;PMS5003;69710;64.656;21.218;2023-08-08T12:28:52;36;33;
49454;PMS5003;69710;64.656;21.218;2023-08-08T12:31:20;32;29;
49454;PMS5003;69710;64.656;21.218;2023-08-08T12:33:48;39;37;
49454;PMS5003;69710;64.656;21.218;2023-08-08T12:36:16;37;37;
49454;PMS5003;69710;64.656;21.218;2023-08-08T12:38:44;36;36;
49454;PMS5003;69710;64.656;21.218;2023-08-08T12:41:12;37;37;
49454;PMS5003;69710;64.656;21.218;2023-08-08T12:43:40;23;23;
49454;PMS5003;69710;64.656;21.218;2023-08-08T12:46:07;26;24;
49454;PMS5003;69710;64.656;21.218;2023-08-08T12:48:35;23;22;
49454;PMS5003;69710;64.656;21.218;2023-08-08T12:51:02;22;21;
49454;PMS5003;69710;64.656;21.218;2023-08-08T12:53:30;21;19;
49454;PMS5003;69710;64.656;21.218;2023-08-08T12:55:58;16;16;
49454;PMS5003;69710;64.656;21.218;2023-08-08T12:58:26;16;16;
49454;PMS5003;69710;64.656;21.218;2023-08-08T13:00:54;17;16;
49454;PMS5003;69710;64.656;21.218;2023-08-08T13:03:22;24;23;
49454;PMS5003;69710;64.656;21.218;2023-08-08T13:05:50;27;23;
49454;PMS5003;69710;64.656;21.218;2023-08-08T13:08:18;22;21;
49454;PMS5003;69710;64.656;21.218;2023-08-08T13:10:45;22;22;
49454;PMS5003;69710;64.656;21.218;2023-08-08T13:13:13;20;19;
49454;PMS5003;69710;64.656;21.218;2023-08-08T13:15:41;16;15;
49454;PMS5003;69710;64.656;21.218;2023-08-08T13:18:09;14;13;
49454;PMS5003;69710;64.656;21.218;2023-08-08T13:20:36;12;12;
49454;PMS5003;69710;64.656;21.218;2023-08-08T13:23:04;17;14;
49454;PMS5003;69710;64.656;21.218;2023-08-08T13:25:32;9;8;
49454;PMS5003;69710;64.656;21.218;2023-08-08T13:28:00;14;13;
49454;PMS5003;69710;64.656;21.218;2023-08-08T13:30:28;12;10;
49454;PMS5003;69710;64.656;21.218;2023-08-08T13:32:56;14;11;
49454;PMS5003;69710;64.656;21.218;2023-08-08T13:35:24;12;9;
49454;PMS5003;69710;64.656;21.218;2023-08-08T13:37:52;16;15;
49454;PMS5003;69710;64.656;21.218;2023-08-08T13:40:19;16;14;
49454;PMS5003;69710;64.656;21.218;2023-08-08T13:42:47;11;9;
49454;PMS5003;69710;64.656;21.218;2023-08-08T13:45:15;20;14;
49454;PMS5003;69710;64.656;21.218;2023-08-08T13:47:43;15;13;
49454;PMS5003;69710;64.656;21.218;2023-08-08T13:50:10;15;12;
49454;PMS5003;69710;64.656;21.218;2023-08-08T13:52:38;18;14;
49454;PMS5003;69710;64.656;21.218;2023-08-08T13:55:06;17;13;
49454;PMS5003;69710;64.656;21.218;2023-08-08T13:57:34;12;11;
49454;PMS5003;69710;64.656;21.218;2023-08-08T14:00:02;13;13;
49454;PMS5003;69710;64.656;21.218;2023-08-08T14:02:31;18;17;
49454;PMS5003;69710;64.656;21.218;2023-08-08T14:04:58;15;14;
49454;PMS5003;69710;64.656;21.218;2023-08-08T14:07:26;17;14;
49454;PMS5003;69710;64.656;21.218;2023-08-08T14:09:54;13;11;
49454;PMS5003;69710;64.656;21.218;2023-08-08T14:12:22;17;15;
49454;PMS5003;69710;64.656;21.218;2023-08-08T14:14:50;15;12;
49454;PMS5003;69710;64.656;21.218;2023-08-08T14:17:18;14;14;
49454;PMS5003;69710;64.656;21.218;2023-08-08T14:19:45;17;15;
49454;PMS5003;69710;64.656;21.218;2023-08-08T14:22:13;20;19;
49454;PMS5003;69710;64.656;21.218;2023-08-08T14:24:41;22;21;
49454;PMS5003;69710;64.656;21.218;2023-08-08T14:27:09;18;18;
49454;PMS5003;69710;64.656;21.218;2023-08-08T14:29:37;17;17;
49454;PMS5003;69710;64.656;21.218;2023-08-08T14:32:05;17;17;
49454;PMS5003;69710;64.656;21.218;2023-08-08T14:34:33;19;18;
49454;PMS5003;69710;64.656;21.218;2023-08-08T14:37:01;23;22;
49454;PMS5003;69710;64.656;21.218;2023-08-08T14:39:29;19;18;
49454;PMS5003;69710;64.656;21.218;2023-08-08T14:41:57;21;20;
49454;PMS5003;69710;64.656;21.218;2023-08-08T14:44:24;20;19;
49454;PMS5003;69710;64.656;21.218;2023-08-08T14:46:53;19;18;
49454;PMS5003;69710;64.656;21.218;2023-08-08T14:49:20;18;17;
49454;PMS5003;69710;64.656;21.218;2023-08-08T14:51:48;21;20;
49454;PMS5003;69710;64.656;21.218;2023-08-08T14:54:16;18;17;
49454;PMS5003;69710;64.656;21.218;2023-08-08T14:56:44;14;14;
49454;PMS5003;69710;64.656;21.218;2023-08-08T14:59:13;14;13;
49454;PMS5003;69710;64.656;21.218;2023-08-08T15:01:41;15;15;
49454;PMS5003;69710;64.656;21.218;2023-08-08T15:04:09;15;15;
49454;PMS5003;69710;64.656;21.218;2023-08-08T15:06:37;14;13;
49454;PMS5003;69710;64.656;21.218;2023-08-08T15:09:05;13;13;
49454;PMS5003;69710;64.656;21.218;2023-08-08T15:11:33;16;16;
49454;PMS5003;69710;64.656;21.218;2023-08-08T15:14:01;15;15;
49454;PMS5003;69710;64.656;21.218;2023-08-08T15:16:29;15;13;
49454;PMS5003;69710;64.656;21.218;2023-08-08T15:18:57;16;16;
49454;PMS5003;69710;64.656;21.218;2023-08-08T15:21:25;15;15;
49454;PMS5003;69710;64.656;21.218;2023-08-08T15:23:53;15;13;
49454;PMS5003;69710;64.656;21.218;2023-08-08T15:26:21;14;14;
49454;PMS5003;69710;64.656;21.218;2023-08-08T15:28:49;14;14;
49454;PMS5003;69710;64.656;21.218;2023-08-08T15:31:18;15;14;
49454;PMS5003;69710;64.656;21.218;2023-08-08T15:33:46;12;12;
49454;PMS5003;69710;64.656;21.218;2023-08-08T15:36:14;11;11;
49454;PMS5003;69710;64.656;21.218;2023-08-08T15:38:42;12;11;
49454;PMS5003;69710;64.656;21.218;2023-08-08T15:41:10;9;9;
49454;PMS5003;69710;64.656;21.218;2023-08-08T15:43:38;9;9;
49454;PMS5003;69710;64.656;21.218;2023-08-08T15:46:05;10;8;
49454;PMS5003;69710;64.656;21.218;2023-08-08T15:48:33;7;7;
49454;PMS5003;69710;64.656;21.218;2023-08-08T15:51:01;6;6;
49454;PMS5003;69710;64.656;21.218;2023-08-08T15:53:29;8;8;
49454;PMS5003;69710;64.656;21.218;2023-08-08T15:55:57;8;8;
49454;PMS5003;69710;64.656;21.218;2023-08-08T15:58:25;7;7;
49454;PMS5003;69710;64.656;21.218;2023-08-08T16:00:54;8;6;
49454;PMS5003;69710;64.656;21.218;2023-08-08T16:03:22;7;7;
49454;PMS5003;69710;64.656;21.218;2023-08-08T16:05:49;7;7;
49454;PMS5003;69710;64.656;21.218;2023-08-08T16:08:18;6;6;